createdAt,value
2019-04-29T00:06:01.690Z,68.60
2019-04-29T00:09:02.015Z,67.46
2019-04-29T00:11:33.195Z,70.27
2019-04-29T00:14:09.127Z,69.24
2019-04-29T00:18:02.553Z,68.75
2019-04-29T00:20:50.966Z,70.21
2019-04-29T00:23:21.276Z,70.78
2019-04-29T00:26:02.063Z,70.68
2019-04-29T00:29:23.282Z,70.13
2019-04-29T00:32:49.292Z,69.09
2019-04-29T00:36:48.247Z,70.26
2019-04-29T00:39:51.008Z,68.75
2019-04-29T00:42:45.902Z,68.48
2019-04-29T00:46:02.856Z,71.29
2019-04-29T00:48:32.968Z,69.96
2019-04-29T00:51:03.412Z,68.95
2019-04-29T00:53:44.667Z,68.54
2019-04-29T00:56:15.047Z,70.71
2019-04-29T00:58:45.118Z,70.47
2019-04-29T01:01:30.232Z,70.41
2019-04-29T01:04:00.432Z,70.68
2019-04-29T01:06:30.838Z,68.86
2019-04-29T01:12:31.329Z,71.05
2019-04-29T01:15:32.842Z,71.17
2019-04-29T01:18:02.947Z,70.01
2019-04-29T01:20:36.427Z,70.86
2019-04-29T01:23:19.689Z,71.33
2019-04-29T01:25:53.246Z,71.24
2019-04-29T01:28:40.048Z,70.02
2019-04-29T01:31:10.348Z,71.48
2019-04-29T01:33:40.384Z,70.65
2019-04-29T01:36:44.870Z,71.95
2019-04-29T01:39:16.370Z,72.03
2019-04-29T01:42:18.315Z,71.72
2019-04-29T01:45:03.275Z,71.50
2019-04-29T01:51:29.177Z,70.41
2019-04-29T01:53:59.671Z,72.12
2019-04-29T01:56:30.318Z,71.01
2019-04-29T01:59:00.442Z,69.85
2019-04-29T02:01:30.893Z,70.75
2019-04-29T02:04:01.239Z,70.90
2019-04-29T02:06:31.362Z,71.21
2019-04-29T02:09:01.580Z,70.40
2019-04-29T02:11:31.734Z,72.04
2019-04-29T02:14:19.406Z,72.31
2019-04-29T02:16:49.646Z,71.18
2019-04-29T02:19:21.506Z,70.33
2019-04-29T02:26:47.691Z,71.77
2019-04-29T02:29:32.632Z,71.14
2019-04-29T02:36:21.994Z,70.85
2019-04-29T02:39:24.152Z,71.89
2019-04-29T02:42:01.518Z,71.13
2019-04-29T02:44:36.510Z,70.22
2019-04-29T02:47:06.755Z,71.20
2019-04-29T02:49:36.881Z,69.97
2019-04-29T02:52:07.055Z,69.66
2019-04-29T02:54:37.199Z,70.32
2019-04-29T02:57:55.155Z,70.85
2019-04-29T03:01:03.459Z,72.69
2019-04-29T03:03:42.610Z,71.23
2019-04-29T03:06:12.971Z,71.09
2019-04-29T03:08:43.086Z,70.64
2019-04-29T03:11:14.646Z,71.55
2019-04-29T03:13:44.834Z,71.54
2019-04-29T03:16:21.585Z,72.49
2019-04-29T03:18:56.781Z,71.17
2019-04-29T03:21:46.777Z,71.25
2019-04-29T03:24:17.018Z,69.83
2019-04-29T03:26:53.154Z,71.35
2019-04-29T03:29:23.308Z,71.17
2019-04-29T03:31:54.730Z,69.53
2019-04-29T03:34:25.343Z,70.78
2019-04-29T03:36:56.092Z,70.54
2019-04-29T03:39:26.319Z,69.96
2019-04-29T03:41:56.853Z,70.88
2019-04-29T03:44:32.860Z,72.32
2019-04-29T03:46:59.946Z,70.33
2019-04-29T03:49:29.986Z,69.48
2019-04-29T03:52:00.027Z,71.35
2019-04-29T03:54:36.530Z,71.60
2019-04-29T03:57:20.919Z,71.38
2019-04-29T03:59:51.245Z,72.66
2019-04-29T04:02:30.962Z,72.74
2019-04-29T04:05:22.767Z,71.99
2019-04-29T04:08:03.801Z,72.01
2019-04-29T04:10:51.216Z,72.22
2019-04-29T04:13:24.541Z,70.93
2019-04-29T04:15:55.130Z,71.52
2019-04-29T04:18:30.735Z,69.64
2019-04-29T04:21:01.241Z,69.47
2019-04-29T04:23:31.957Z,70.07
2019-04-29T04:30:11.436Z,73.33
2019-04-29T04:32:42.291Z,71.59
2019-04-29T04:35:13.358Z,71.76
2019-04-29T04:38:29.622Z,71.31
2019-04-29T04:41:49.333Z,72.73
2019-04-29T04:44:20.030Z,71.34
2019-04-29T04:46:50.350Z,70.38
2019-04-29T04:49:20.873Z,69.71
2019-04-29T04:51:50.927Z,70.38
2019-04-29T04:54:44.813Z,71.65
2019-04-29T04:57:03.449Z,71.72
2019-04-29T04:59:37.846Z,69.62
2019-04-29T05:02:07.966Z,71.24
2019-04-29T05:04:45.247Z,72.44
2019-04-29T05:07:23.779Z,72.22
2019-04-29T05:09:56.250Z,71.62
2019-04-29T05:12:26.375Z,71.22
2019-04-29T05:15:07.227Z,70.36
2019-04-29T05:17:40.176Z,69.23
2019-04-29T05:20:14.726Z,69.22
2019-04-29T05:23:28.484Z,69.76
2019-04-29T05:25:36.379Z,70.62
2019-04-29T05:28:06.969Z,69.30
2019-04-29T05:30:37.047Z,69.71
2019-04-29T05:33:15.789Z,69.14
2019-04-29T05:36:02.117Z,69.38
2019-04-29T05:38:41.434Z,68.42
2019-04-29T05:41:15.273Z,67.42
2019-04-29T05:43:51.324Z,68.50
2019-04-29T05:46:36.142Z,70.35
2019-04-29T05:49:43.525Z,70.35
2019-04-29T05:52:34.720Z,70.23
2019-04-29T05:55:15.453Z,70.57
2019-04-29T05:57:46.800Z,69.69
2019-04-29T06:00:18.773Z,67.51
2019-04-29T06:02:54.567Z,66.93
2019-04-29T06:05:22.068Z,67.34
2019-04-29T06:07:56.129Z,67.05
2019-04-29T06:10:26.408Z,67.76
2019-04-29T06:12:57.641Z,67.87
2019-04-29T06:15:28.378Z,66.32
2019-04-29T06:17:58.460Z,68.54
2019-04-29T06:20:35.323Z,68.01
2019-04-29T06:23:11.124Z,66.86
2019-04-29T06:25:38.506Z,67.34
2019-04-29T06:28:09.048Z,67.08
2019-04-29T06:30:40.748Z,68.22
2019-04-29T06:33:24.370Z,69.01
2019-04-29T06:35:56.958Z,66.71
2019-04-29T06:38:26.809Z,67.73
2019-04-29T06:40:56.303Z,66.71
2019-04-29T06:43:28.903Z,68.33
2019-04-29T06:45:58.486Z,67.56
2019-04-29T06:48:28.527Z,67.14
2019-04-29T06:50:58.541Z,67.86
2019-04-29T06:53:28.975Z,68.04
2019-04-29T06:55:59.026Z,68.82
2019-04-29T06:58:32.629Z,67.80
2019-04-29T07:01:03.123Z,68.26
2019-04-29T07:03:33.381Z,66.93
2019-04-29T07:06:03.353Z,70.38
2019-04-29T07:08:34.087Z,68.92
2019-04-29T07:11:04.359Z,69.71
2019-04-29T07:13:34.774Z,70.56
2019-04-29T07:16:04.914Z,69.51
2019-04-29T07:18:34.946Z,69.97
2019-04-29T07:21:07.596Z,70.27
2019-04-29T07:23:37.158Z,68.56
2019-04-29T07:26:07.195Z,69.73
2019-04-29T07:28:37.622Z,71.05
2019-04-29T07:31:10.114Z,70.50
2019-04-29T07:33:39.409Z,69.78
2019-04-29T07:36:11.365Z,68.37
2019-04-29T07:38:42.074Z,70.41
2019-04-29T07:41:14.237Z,71.81
2019-04-29T07:43:45.254Z,69.10
2019-04-29T07:46:49.269Z,70.60
2019-04-29T07:49:06.500Z,69.87
2019-04-29T07:51:39.545Z,69.63
2019-04-29T07:54:11.149Z,72.42
2019-04-29T07:56:42.281Z,72.05
2019-04-29T07:59:12.391Z,71.23
2019-04-29T08:01:42.484Z,72.71
2019-04-29T08:04:12.826Z,70.92
2019-04-29T08:06:44.894Z,72.49
2019-04-29T08:09:15.497Z,71.98
2019-04-29T08:11:46.106Z,73.16
2019-04-29T08:14:17.432Z,73.50
2019-04-29T08:16:47.898Z,73.05
2019-04-29T08:19:17.967Z,71.77
2019-04-29T08:21:49.718Z,72.74
2019-04-29T08:24:19.849Z,72.50
2019-04-29T08:26:49.990Z,73.43
2019-04-29T08:29:20.082Z,72.15
2019-04-29T08:31:51.986Z,74.25
2019-04-29T08:34:23.187Z,71.34
2019-04-29T08:36:53.680Z,73.02
2019-04-29T08:39:25.013Z,73.41
2019-04-29T08:41:58.831Z,73.17
2019-04-29T08:44:47.406Z,75.30
2019-04-29T08:47:30.429Z,73.45
2019-04-29T08:49:55.483Z,72.65
2019-04-29T08:52:26.075Z,73.01
2019-04-29T08:54:57.334Z,73.30
2019-04-29T08:57:27.427Z,73.50
2019-04-29T08:59:57.508Z,73.59
2019-04-29T09:02:35.134Z,73.99
2019-04-29T09:04:59.358Z,73.39
2019-04-29T09:07:29.458Z,75.13
2019-04-29T09:10:01.845Z,74.07
2019-04-29T09:12:31.588Z,73.45
2019-04-29T09:15:01.926Z,72.99
2019-04-29T09:17:32.039Z,75.50
2019-04-29T09:20:02.075Z,74.11
2019-04-29T09:22:33.811Z,74.77
2019-04-29T09:25:30.605Z,72.84
2019-04-29T09:28:02.544Z,75.95
2019-04-29T09:30:32.584Z,74.51
2019-04-29T09:33:02.985Z,74.84
2019-04-29T09:35:33.760Z,75.13
2019-04-29T09:38:05.319Z,73.20
2019-04-29T09:40:39.546Z,75.05
2019-04-29T09:43:32.910Z,74.00
2019-04-29T09:46:12.966Z,75.99
2019-04-29T09:48:43.299Z,75.03
2019-04-29T09:51:17.644Z,73.08
2019-04-29T09:53:45.100Z,75.43
2019-04-29T09:56:15.168Z,77.03
2019-04-29T09:58:45.229Z,75.84
2019-04-29T10:01:41.108Z,74.87
2019-04-29T10:04:26.561Z,74.76
2019-04-29T10:06:58.455Z,72.79
2019-04-29T10:09:28.912Z,73.41
2019-04-29T10:11:59.688Z,74.56
2019-04-29T10:14:29.824Z,75.32
2019-04-29T10:17:20.584Z,75.18
2019-04-29T10:20:07.742Z,76.02
2019-04-29T10:22:36.623Z,75.20
2019-04-29T10:25:07.338Z,75.11
2019-04-29T10:27:38.410Z,74.75
2019-04-29T10:30:09.195Z,76.55
2019-04-29T10:32:42.535Z,76.04
2019-04-29T10:35:11.217Z,74.32
2019-04-29T10:37:41.288Z,75.53
2019-04-29T10:40:31.580Z,75.41
2019-04-29T10:43:17.260Z,74.92
2019-04-29T10:46:03.769Z,76.15
2019-04-29T10:48:45.087Z,78.07
2019-04-29T10:51:16.190Z,77.10
2019-04-29T10:53:46.615Z,77.00
2019-04-29T10:56:18.823Z,75.28
2019-04-29T10:58:48.885Z,74.33
2019-04-29T11:02:26.363Z,76.19
2019-04-29T11:05:02.683Z,74.87
2019-04-29T11:07:36.975Z,77.38
2019-04-29T11:10:24.815Z,76.87
2019-04-29T11:12:46.292Z,75.80
2019-04-29T11:15:17.475Z,77.05
2019-04-29T11:17:47.615Z,76.70
2019-04-29T11:20:21.248Z,78.54
2019-04-29T11:22:59.021Z,76.17
2019-04-29T11:25:51.656Z,75.72
2019-04-29T11:28:34.248Z,74.11
2019-04-29T11:31:04.490Z,76.37
2019-04-29T11:33:41.689Z,76.94
2019-04-29T11:36:13.911Z,77.38
2019-04-29T11:38:44.222Z,78.17
2019-04-29T11:41:20.069Z,75.75
2019-04-29T11:43:50.493Z,75.63
2019-04-29T11:46:20.989Z,76.42
2019-04-29T11:48:52.758Z,76.13
2019-04-29T11:51:48.535Z,78.58
2019-04-29T11:54:12.392Z,78.77
2019-04-29T11:56:41.834Z,75.70
2019-04-29T11:59:20.079Z,76.41
2019-04-29T12:02:01.875Z,76.82
2019-04-29T12:04:42.305Z,77.29
2019-04-29T12:07:12.987Z,78.34
2019-04-29T12:09:43.716Z,76.05
2019-04-29T12:12:14.974Z,79.62
2019-04-29T12:15:00.869Z,78.13
2019-04-29T12:18:02.396Z,77.92
2019-04-29T12:20:41.335Z,78.67
2019-04-29T12:23:15.720Z,78.35
2019-04-29T12:25:43.593Z,78.24
2019-04-29T12:28:18.902Z,75.31
2019-04-29T12:30:44.143Z,78.58
2019-04-29T12:33:17.535Z,78.68
2019-04-29T12:36:16.409Z,76.59
2019-04-29T12:39:04.864Z,77.25
2019-04-29T12:41:51.677Z,76.24
2019-04-29T12:44:35.460Z,76.84
2019-04-29T12:47:05.865Z,76.42
2019-04-29T12:49:33.825Z,77.46
2019-04-29T12:52:02.036Z,74.26
2019-04-29T12:54:30.297Z,77.53
2019-04-29T12:56:58.256Z,77.09
2019-04-29T12:59:26.209Z,77.03
2019-04-29T13:02:19.887Z,76.24
2019-04-29T13:05:04.549Z,75.01
2019-04-29T13:08:01.409Z,75.53
2019-04-29T13:10:44.269Z,79.79
2019-04-29T13:13:15.651Z,78.25
2019-04-29T13:16:10.652Z,75.56
2019-04-29T13:19:12.246Z,74.56
2019-04-29T13:21:39.337Z,74.70
2019-04-29T13:24:21.682Z,75.83
2019-04-29T13:26:42.241Z,74.91
2019-04-29T13:29:09.487Z,75.92
2019-04-29T13:31:39.012Z,75.57
2019-04-29T13:34:23.809Z,76.48
2019-04-29T13:36:39.144Z,74.46
2019-04-29T13:39:08.049Z,77.14
2019-04-29T13:41:55.586Z,74.64
2019-04-29T13:44:07.517Z,73.82
2019-04-29T13:46:58.338Z,76.51
2019-04-29T13:49:49.105Z,72.22
2019-04-29T13:52:15.632Z,73.45
2019-04-29T13:54:44.286Z,73.22
2019-04-29T13:57:16.202Z,74.58
2019-04-29T14:00:13.847Z,75.89
2019-04-29T14:02:58.924Z,74.02
2019-04-29T14:05:17.662Z,76.49
2019-04-29T14:07:48.644Z,74.34
2019-04-29T14:10:17.066Z,73.16
2019-04-29T14:12:51.132Z,71.70
2019-04-29T14:15:15.846Z,72.29
2019-04-29T14:17:44.206Z,72.13
2019-04-29T14:20:21.775Z,73.48
2019-04-29T14:22:52.036Z,71.30
2019-04-29T14:25:19.083Z,70.99
2019-04-29T14:27:46.990Z,73.00
2019-04-29T14:30:16.993Z,71.39
2019-04-29T14:32:49.805Z,70.00
2019-04-29T14:35:49.975Z,70.79
2019-04-29T14:38:18.720Z,73.41
2019-04-29T14:41:02.819Z,69.11
2019-04-29T14:43:40.981Z,70.19
2019-04-29T14:46:24.699Z,72.33
2019-04-29T14:48:59.505Z,70.09
2019-04-29T14:51:28.456Z,71.34
2019-04-29T14:54:01.298Z,69.34
2019-04-29T14:56:27.584Z,70.65
2019-04-29T14:59:06.532Z,68.86
2019-04-29T15:01:33.613Z,68.75
2019-04-29T15:04:18.041Z,69.78
2019-04-29T15:06:38.422Z,67.90
2019-04-29T15:09:16.970Z,68.42
2019-04-29T15:11:51.758Z,67.50
2019-04-29T15:14:35.145Z,66.92
2019-04-29T15:17:14.361Z,67.12
2019-04-29T15:20:11.890Z,66.44
2019-04-29T15:22:41.369Z,66.41
2019-04-29T15:25:11.010Z,68.03
2019-04-29T15:27:39.347Z,67.41
2019-04-29T15:30:08.739Z,68.33
2019-04-29T15:32:40.263Z,68.45
2019-04-29T15:35:09.700Z,65.02
2019-04-29T15:37:40.069Z,68.47
2019-04-29T15:40:09.831Z,66.65
2019-04-29T15:42:42.294Z,65.71
2019-04-29T15:45:18.229Z,64.66
2019-04-29T15:47:48.689Z,64.82
2019-04-29T15:50:19.095Z,66.05
2019-04-29T15:52:51.244Z,64.07
2019-04-29T15:55:19.859Z,65.20
2019-04-29T15:57:50.277Z,65.65
2019-04-29T16:00:23.027Z,65.58
2019-04-29T16:02:50.270Z,63.80
2019-04-29T16:05:34.670Z,63.82
2019-04-29T16:08:32.698Z,62.51
2019-04-29T16:11:21.140Z,63.76
2019-04-29T16:14:08.295Z,65.56
2019-04-29T16:16:23.069Z,63.91
2019-04-29T16:18:53.451Z,66.49
2019-04-29T16:21:24.066Z,65.45
2019-04-29T16:23:57.521Z,68.13
2019-04-29T16:26:30.182Z,67.80
2019-04-29T16:29:12.489Z,62.08
2019-04-29T16:31:33.636Z,57.99
2019-04-29T16:34:02.453Z,56.75
2019-04-29T16:36:33.261Z,57.38
2019-04-29T16:39:02.564Z,55.74
2019-04-29T16:42:01.508Z,56.39
2019-04-29T16:44:36.052Z,53.66
2019-04-29T16:49:43.196Z,52.30
2019-04-29T16:52:12.598Z,52.93
2019-04-29T16:54:41.492Z,52.12
2019-04-29T16:57:10.728Z,53.09
2019-04-29T16:59:39.717Z,52.32
2019-04-29T17:02:10.198Z,52.29
2019-04-29T17:04:43.077Z,52.14
2019-04-29T17:07:14.035Z,51.38
2019-04-29T17:10:01.540Z,52.35
2019-04-29T17:12:37.902Z,52.09
2019-04-29T17:15:23.009Z,51.60
2019-04-29T17:17:37.671Z,53.15
2019-04-29T17:20:07.014Z,52.21
2019-04-29T17:22:42.767Z,52.67
2019-04-29T17:25:08.347Z,53.04
2019-04-29T17:27:59.717Z,53.02
2019-04-29T17:30:46.299Z,53.55
2019-04-29T17:33:27.545Z,53.38
2019-04-29T17:35:14.348Z,53.63
2019-04-29T17:35:50.791Z,52.74
2019-04-29T17:38:20.113Z,52.81
2019-04-29T17:40:51.120Z,54.13
2019-04-29T17:43:43.067Z,53.70
2019-04-29T17:46:38.085Z,53.42
2019-04-29T17:49:13.781Z,53.53
2019-04-29T17:51:43.140Z,55.11
2019-04-29T17:54:15.808Z,55.30
2019-04-29T17:57:28.699Z,55.54
2019-04-29T18:00:11.058Z,54.93
2019-04-29T18:03:00.876Z,56.29
2019-04-29T18:05:54.843Z,56.45
2019-04-29T18:08:23.470Z,56.75
2019-04-29T18:10:55.607Z,56.64
2019-04-29T18:13:26.495Z,56.52
2019-04-29T18:16:01.584Z,56.55
2019-04-29T18:18:45.432Z,57.26
2019-04-29T18:21:21.698Z,57.61
2019-04-29T18:24:08.404Z,57.25
2019-04-29T18:26:44.226Z,57.66
2019-04-29T18:29:16.760Z,57.89
2019-04-29T18:31:46.597Z,57.34
2019-04-29T18:34:15.706Z,58.02
2019-04-29T18:36:45.838Z,58.64
2019-04-29T18:39:20.158Z,58.01
2019-04-29T18:42:09.132Z,58.35
2019-04-29T18:49:37.169Z,58.32
2019-04-29T18:52:07.763Z,57.89
2019-04-29T18:54:57.291Z,58.73
2019-04-29T18:57:30.508Z,59.18
2019-04-29T19:04:16.138Z,59.12
2019-04-29T19:06:41.689Z,59.56
2019-04-29T19:09:18.022Z,60.03
2019-04-29T19:11:41.556Z,59.83
2019-04-29T19:14:38.315Z,60.26
2019-04-29T19:17:10.983Z,60.28
2019-04-29T19:19:39.787Z,60.38
2019-04-29T19:22:09.504Z,60.56
2019-04-29T19:24:38.514Z,60.34
2019-04-29T19:27:15.853Z,60.72
2019-04-29T19:29:58.425Z,60.88
2019-04-29T19:32:34.805Z,61.14
2019-04-29T19:35:04.373Z,61.21
2019-04-29T19:41:23.834Z,61.57
2019-04-29T19:43:55.102Z,62.54
2019-04-29T19:47:15.185Z,61.73
2019-04-29T19:49:44.720Z,62.23
2019-04-29T19:52:19.061Z,62.01
2019-04-29T19:54:45.258Z,61.86
2019-04-29T19:57:14.938Z,61.99
2019-04-29T20:03:57.372Z,61.69
2019-04-29T20:06:30.053Z,61.92
2019-04-29T20:09:01.399Z,62.26
2019-04-29T20:11:32.691Z,62.33
2019-04-29T20:14:04.794Z,62.43
2019-04-29T20:17:09.552Z,62.52
2019-04-29T20:19:45.905Z,62.67
2019-04-29T20:22:16.142Z,62.56
2019-04-29T20:24:49.657Z,62.80
2019-04-29T20:27:16.718Z,63.06
2019-04-29T20:29:45.831Z,62.86
2019-04-29T20:32:16.328Z,63.08
2019-04-29T20:34:45.827Z,63.23
2019-04-29T20:37:36.737Z,63.57
2019-04-29T20:40:50.789Z,63.35
2019-04-29T20:43:35.873Z,63.54
2019-04-29T20:46:04.663Z,64.10
2019-04-29T20:48:32.829Z,63.86
2019-04-29T20:51:10.620Z,63.95
2019-04-29T20:53:46.141Z,63.98
2019-04-29T20:56:23.972Z,64.32
2019-04-29T20:58:46.700Z,64.92
2019-04-29T21:01:29.201Z,64.68
2019-04-29T21:03:57.454Z,64.42
2019-04-29T21:06:25.537Z,64.89
2019-04-29T21:08:55.106Z,65.38
2019-04-29T21:11:39.133Z,65.76
2019-04-29T21:15:01.239Z,66.16
2019-04-29T21:17:31.976Z,65.71
2019-04-29T21:19:59.971Z,64.96
2019-04-29T21:22:35.657Z,66.11
2019-04-29T21:25:04.118Z,65.79
2019-04-29T21:27:43.059Z,65.58
2019-04-29T21:30:14.302Z,65.96
2019-04-29T21:32:42.770Z,66.03
2019-04-29T21:35:25.003Z,66.16
2019-04-29T21:38:26.036Z,66.30
2019-04-29T21:41:05.150Z,67.04
2019-04-29T21:43:35.483Z,67.99
2019-04-29T21:46:05.740Z,68.93
2019-04-29T21:48:37.433Z,69.01
2019-04-29T21:51:06.761Z,68.24
2019-04-29T21:54:22.420Z,69.38
2019-04-29T21:57:46.041Z,68.52
2019-04-29T22:00:19.688Z,68.48
2019-04-29T22:03:09.860Z,69.74
2019-04-29T22:05:49.286Z,69.90
2019-04-29T22:08:20.708Z,71.23
2019-04-29T22:11:36.133Z,70.82
2019-04-29T22:14:09.870Z,71.05
2019-04-29T22:17:07.460Z,71.14
2019-04-29T22:19:36.981Z,70.78
2019-04-29T22:22:06.774Z,70.87
2019-04-29T22:24:39.448Z,70.61
2019-04-29T22:27:08.346Z,71.49
2019-04-29T22:29:38.959Z,70.83
2019-04-29T22:32:14.422Z,72.18
2019-04-29T22:35:10.963Z,72.07
2019-04-29T22:37:34.669Z,71.55
2019-04-29T22:40:07.208Z,71.36
2019-04-29T22:42:43.452Z,72.09
2019-04-29T22:45:21.381Z,73.33
2019-04-29T22:48:14.269Z,72.63
2019-04-29T22:50:38.077Z,73.70
2019-04-29T22:53:07.305Z,72.01
2019-04-29T22:55:50.210Z,73.38
2019-04-29T22:58:21.609Z,73.69
2019-04-29T23:00:52.294Z,73.33
2019-04-29T23:03:20.265Z,73.62
2019-04-29T23:05:52.824Z,73.45
2019-04-29T23:08:53.850Z,73.49
2019-04-29T23:11:21.799Z,74.00
2019-04-29T23:14:49.186Z,73.91
2019-04-29T23:17:17.125Z,74.67
2019-04-29T23:20:42.944Z,74.46
2019-04-29T23:26:27.402Z,74.00
2019-04-29T23:28:59.397Z,73.74
2019-04-29T23:31:27.233Z,73.44
2019-04-29T23:33:56.484Z,73.85
2019-04-29T23:36:27.470Z,74.71
2019-04-29T23:39:41.044Z,74.59
2019-04-29T23:42:12.306Z,73.73
2019-04-29T23:44:42.393Z,74.58
2019-04-29T23:47:10.438Z,75.32
2019-04-29T23:49:47.055Z,75.09
2019-04-29T23:52:31.770Z,75.19
2019-04-29T23:54:55.981Z,73.79
2019-04-29T23:57:36.989Z,75.36
